Time;durP1;ratioP1;P1;durP2;ratioP2;P2;SDS_P1;SDS_P2;PMS_P1;PMS_P2;Temp;Humidity;BMP_temperature;BMP_pressure;BME280_temperature;BME280_humidity;BME280_pressure;Samples;Min_cycle;Max_cycle;Signal;HPM_P1;HPM_P2
2021/04/15 00:03:27;;;;;;;;;;;0.90;99.90;;;;;;8296195;28;19909;-70
2021/04/15 00:07:28;;;;;;;;;;;0.70;99.90;;;;;;8296397;28;19912;-70
2021/04/15 00:11:30;;;;;;;;;;;0.90;99.90;;;;;;8296335;28;19909;-70
2021/04/15 00:15:31;;;;;;;;;;;1.00;99.90;;;;;;8323647;28;19905;-70
2021/04/15 00:19:31;;;;;;;;;;;1.00;99.90;;;;;;8328705;28;19905;-70
2021/04/15 00:23:32;;;;;;;;;;;0.90;99.90;;;;;;8327089;28;20364;-70
2021/04/15 00:27:33;;;;;;;;;;;0.80;99.90;;;;;;8328407;28;19966;-70
2021/04/15 00:31:33;;;;;;;;;;;0.80;99.90;;;;;;8328410;28;20158;-70
2021/04/15 00:35:34;;;;;;;;;;;0.70;99.90;;;;;;8328000;28;20391;-70
2021/04/15 00:39:35;;;;;;;;;;;0.60;99.90;;;;;;8328281;28;19905;-70
2021/04/15 00:43:37;;;;;;;;;;;0.60;99.90;;;;;;8314167;28;19917;-70
2021/04/15 00:47:39;;;;;;;;;;;0.40;99.90;;;;;;8294073;28;19905;-70
2021/04/15 00:51:41;;;;;;;;;;;0.30;99.90;;;;;;8295357;28;20384;-70
2021/04/15 00:55:42;;;;;;;;;;;0.20;99.90;;;;;;8294850;28;19910;-70
2021/04/15 00:59:42;;;;;;;;;;;0.20;99.90;;;;;;8295002;28;19947;-70
2021/04/15 01:03:43;;;;;;;;;;;0.40;99.90;;;;;;8294856;28;19955;-70
2021/04/15 01:07:43;;;;;;;;;;;0.60;99.90;;;;;;8295109;28;19996;-70
2021/04/15 01:11:49;;;;;;;;;;;0.60;99.90;;;;;;8293825;28;19906;-70
2021/04/15 01:16:01;;;;;;;;;;;0.50;99.90;;;;;;8294768;28;20470;-70
2021/04/15 01:20:08;;;;;;;;;;;0.10;99.90;;;;;;8295132;28;19912;-70
2021/04/15 01:24:16;;;;;;;;;;;-0.10;99.90;;;;;;8294581;28;20411;-70
2021/04/15 01:28:27;;;;;;;;;;;-0.20;99.90;;;;;;8295037;28;20430;-70
2021/04/15 01:32:37;;;;;;;;;;;-0.30;99.90;;;;;;8309631;28;19981;-70
2021/04/15 01:36:42;;;;;;;;;;;0.10;99.90;;;;;;8294264;28;19912;-70
2021/04/15 01:40:44;;;;;;;;;;;0.00;99.90;;;;;;8294740;28;19905;-70
2021/04/15 01:44:45;;;;;;;;;;;0.10;99.90;;;;;;8294280;28;19924;-70
2021/04/15 01:48:47;;;;;;;;;;;0.20;99.90;;;;;;8294737;28;19905;-69
2021/04/15 01:52:49;;;;;;;;;;;0.30;99.90;;;;;;8293095;28;19905;-69
2021/04/15 01:56:57;;;;;;;;;;;0.20;99.90;;;;;;8294583;28;19959;-70
2021/04/15 02:01:01;;;;;;;;;;;0.10;99.90;;;;;;8293451;28;19906;-70
2021/04/15 02:05:10;;;;;;;;;;;0.30;99.90;;;;;;8294285;28;19917;-69
2021/04/15 02:09:12;;;;;;;;;;;0.40;99.90;;;;;;8294341;28;19912;-70
2021/04/15 02:13:14;;;;;;;;;;;0.20;99.90;;;;;;8296813;28;19906;-70
2021/04/15 02:17:15;;;;;;;;;;;-0.10;99.90;;;;;;8300055;28;19906;-69
2021/04/15 02:21:23;;;;;;;;;;;-0.30;99.90;;;;;;8299909;28;20287;-69
2021/04/15 02:25:35;;;;;;;;;;;-0.20;99.90;;;;;;8299902;28;19909;-69
2021/04/15 02:29:37;;;;;;;;;;;-0.20;99.90;;;;;;8298435;28;19906;-69
2021/04/15 02:33:43;;;;;;;;;;;-0.30;99.90;;;;;;8299217;28;19940;-69
2021/04/15 02:37:50;;;;;;;;;;;-0.30;99.90;;;;;;8299196;28;19909;-70
2021/04/15 02:41:50;;;;;;;;;;;-0.30;99.90;;;;;;8299153;28;19916;-69
2021/04/15 02:45:53;;;;;;;;;;;0.10;99.90;;;;;;8298976;28;20304;-69
2021/04/15 02:49:55;;;;;;;;;;;0.00;99.90;;;;;;8299164;28;19912;-69
2021/04/15 02:54:05;;;;;;;;;;;-0.30;99.90;;;;;;8298662;28;19905;-69
2021/04/15 02:58:13;;;;;;;;;;;-0.30;99.90;;;;;;8298802;28;19945;-69
2021/04/15 03:02:16;;;;;;;;;;;-0.40;99.90;;;;;;8298393;28;20387;-70
2021/04/15 03:06:18;;;;;;;;;;;-0.50;99.90;;;;;;8298631;28;20318;-69
2021/04/15 03:10:21;;;;;;;;;;;-0.50;99.90;;;;;;8298285;28;19912;-69
2021/04/15 03:14:26;;;;;;;;;;;-0.40;99.90;;;;;;8297930;28;19905;-69
2021/04/15 03:18:37;;;;;;;;;;;-0.50;99.90;;;;;;8298315;28;19905;-69
2021/04/15 03:22:40;;;;;;;;;;;-0.40;99.90;;;;;;8297661;28;20391;-69
2021/04/15 03:26:46;;;;;;;;;;;-0.10;99.90;;;;;;8296623;28;19963;-69
2021/04/15 03:30:53;;;;;;;;;;;-0.20;99.90;;;;;;8297939;28;19933;-69
2021/04/15 03:35:04;;;;;;;;;;;-0.20;99.90;;;;;;8297274;28;19917;-69
2021/04/15 03:39:11;;;;;;;;;;;-0.30;99.90;;;;;;8297449;28;19917;-69
2021/04/15 03:43:19;;;;;;;;;;;-0.30;99.90;;;;;;8296961;28;19975;-69
2021/04/15 03:47:22;;;;;;;;;;;-0.30;99.90;;;;;;8296064;28;19921;-69
2021/04/15 03:51:24;;;;;;;;;;;-0.50;99.90;;;;;;8295540;28;19905;-69
2021/04/15 03:55:27;;;;;;;;;;;-0.60;99.90;;;;;;8296592;28;20356;-69
2021/04/15 03:59:34;;;;;;;;;;;-0.60;99.90;;;;;;8305919;28;19909;-69
2021/04/15 04:03:37;;;;;;;;;;;-0.70;99.90;;;;;;8299340;28;19917;-69
2021/04/15 04:07:40;;;;;;;;;;;-0.80;99.90;;;;;;8293507;28;19909;-69
2021/04/15 04:11:43;;;;;;;;;;;-0.90;99.90;;;;;;8308819;28;19909;-69
2021/04/15 04:15:46;;;;;;;;;;;-1.00;99.90;;;;;;8295410;28;19917;-69
2021/04/15 04:19:49;;;;;;;;;;;-0.90;99.90;;;;;;8317236;28;19956;-69
2021/04/15 04:24:00;;;;;;;;;;;-1.00;99.90;;;;;;8306493;28;20364;-69
2021/04/15 04:28:06;;;;;;;;;;;-1.10;99.90;;;;;;8296407;28;19910;-69
2021/04/15 04:32:10;;;;;;;;;;;1.70;99.90;;;;;;8295755;28;20007;-69
2021/04/15 04:36:12;;;;;;;;;;;1.50;99.90;;;;;;8295659;28;19913;-69
2021/04/15 04:40:31;;;;;;;;;;;2.90;99.90;;;;;;8306304;28;20437;-69
2021/04/15 04:44:44;;;;;;;;;;;3.70;99.90;;;;;;8312181;28;20295;-69
2021/04/15 04:48:50;;;;;;;;;;;1.70;99.90;;;;;;8282858;28;19920;-70
2021/04/15 04:53:07;;;;;;;;;;;0.60;99.90;;;;;;8299664;28;19915;-69
2021/04/15 04:57:11;;;;;;;;;;;0.00;99.90;;;;;;8311578;28;19916;-69
2021/04/15 05:01:11;;;;;;;;;;;-0.30;99.90;;;;;;8311436;28;19953;-68
2021/04/15 05:05:14;;;;;;;;;;;-0.10;99.90;;;;;;8298897;28;20371;-66
2021/04/15 05:09:31;;;;;;;;;;;0.00;99.90;;;;;;8308451;28;20326;-65
2021/04/15 05:13:31;;;;;;;;;;;0.00;99.90;;;;;;8308748;28;19912;-65
2021/04/15 05:17:34;;;;;;;;;;;0.00;99.90;;;;;;8312100;28;19905;-66
2021/04/15 05:21:35;;;;;;;;;;;0.30;99.90;;;;;;8292598;28;20269;-67
2021/04/15 05:25:39;;;;;;;;;;;0.40;99.90;;;;;;8307644;28;19906;-67
2021/04/15 05:29:41;;;;;;;77.95;20.40;;;0.50;99.90;;;;;;8312893;28;20443;-66
2021/04/15 05:33:42;;;;;;;72.70;24.17;;;0.50;99.90;;;;;;8298057;28;20108;-66
2021/04/15 05:37:43;;;;;;;;;;;0.20;99.90;;;;;;8292104;28;20030;-67
2021/04/15 05:41:50;;;;;;;;;;;0.10;99.90;;;;;;8292169;28;20015;-66
2021/04/15 05:45:50;;;;;;;;;;;0.30;99.90;;;;;;8291528;28;19944;-66
2021/04/15 05:49:55;;;;;;;;;;;0.80;99.90;;;;;;8324766;28;19917;-67
2021/04/15 05:54:03;;;;;;;87.05;20.83;;;1.20;99.90;;;;;;8305588;28;20417;-67
2021/04/15 05:58:09;;;;;;;78.90;24.52;;;1.60;99.90;;;;;;8301913;28;20500;-67
2021/04/15 06:02:34;;;;;;;79.38;24.25;;;1.90;99.90;;;;;;8316396;28;20062;-66
2021/04/15 06:06:38;;;;;;;80.00;24.63;;;2.10;99.90;;;;;;8298149;28;20037;-66
2021/04/15 06:10:40;;;;;;;81.60;24.33;;;2.20;99.90;;;;;;8297979;28;20045;-66
2021/04/15 06:14:49;;;;;;;82.68;24.95;;;2.30;99.90;;;;;;8298235;28;20061;-67
2021/04/15 06:19:10;;;;;;;84.90;23.75;;;2.50;99.90;;;;;;8299081;28;20025;-66
2021/04/15 06:23:23;;;;;;;83.72;23.45;;;2.70;99.90;;;;;;8315485;28;20073;-66
2021/04/15 06:27:24;;;;;;;84.93;23.15;;;2.90;99.90;;;;;;8312874;28;20109;-67
2021/04/15 06:31:29;;;;;;;85.38;22.88;;;2.80;99.90;;;;;;8297965;28;20026;-66
2021/04/15 06:35:32;;;;;;;86.47;23.42;;;2.80;99.90;;;;;;8297721;28;20038;-66
2021/04/15 06:39:38;;;;;;;85.28;23.08;;;3.00;99.90;;;;;;8319589;28;20030;-65
2021/04/15 06:43:56;;;;;;;85.07;23.02;;;3.30;99.90;;;;;;8329087;28;20021;-66
2021/04/15 06:48:16;;;;;;;83.85;22.85;;;3.50;99.90;;;;;;8329047;28;20150;-66
2021/04/15 06:52:28;;;;;;;82.35;23.20;;;3.70;99.90;;;;;;8330002;28;20399;-66
2021/04/15 06:57:00;;;;;;;80.20;22.52;;;3.90;99.90;;;;;;8315474;28;20037;-66
2021/04/15 07:01:22;;;;;;;79.43;22.48;;;4.00;99.90;;;;;;8295172;28;20392;-66
2021/04/15 07:05:26;;;;;;;74.60;22.02;;;4.00;99.90;;;;;;8309507;28;20037;-67
2021/04/15 07:09:58;;;;;;;71.53;21.40;;;4.40;99.90;;;;;;8329982;28;20044;-67
2021/04/15 07:14:18;;;;;;;;;;;4.80;99.90;;;;;;8281455;28;20566;-67
2021/04/15 07:18:41;;;;;;;64.55;20.90;;;4.90;99.90;;;;;;8313206;28;19916;-66
2021/04/15 07:23:03;;;;;;;64.38;20.77;;;5.20;99.90;;;;;;8329211;28;20551;-67
2021/04/15 07:27:16;;;;;;;65.13;21.27;;;5.20;99.90;;;;;;8317857;28;20034;-66
2021/04/15 07:31:32;;;;;;;60.28;20.85;;;5.30;99.90;;;;;;8308031;28;20022;-66
2021/04/15 07:36:04;;;;;;;58.00;20.52;;;5.60;99.90;;;;;;8313034;28;20055;-66
2021/04/15 07:40:04;;;;;;;;;;;5.70;99.90;;;;;;8293809;28;20077;-66
2021/04/15 07:44:20;;;;;;;;;;;5.80;99.90;;;;;;8304447;28;19913;-67
2021/04/15 07:48:32;;;;;;;55.25;20.08;;;5.60;99.90;;;;;;8263091;28;20484;-67
2021/04/15 07:53:11;;;;;;;52.15;19.73;;;6.00;99.90;;;;;;8295894;28;20029;-68
2021/04/15 07:57:29;;;;;;;48.97;19.42;;;6.40;99.90;;;;;;8300886;28;20021;-67
2021/04/15 08:01:54;;;;;;;50.20;19.95;;;6.60;99.90;;;;;;8297615;28;20018;-66
2021/04/15 08:06:00;;;;;;;47.20;19.40;;;6.40;99.90;;;;;;8297283;28;20101;-67
2021/04/15 08:10:25;;;;;;;45.85;18.65;;;6.60;99.90;;;;;;8299404;28;20022;-67
2021/04/15 08:14:53;;;;;;;44.70;18.27;;;6.90;99.90;;;;;;8292612;28;20037;-66
2021/04/15 08:19:18;;;;;;;43.85;18.58;;;7.00;99.90;;;;;;8263289;28;20038;-67
2021/04/15 08:23:31;;;;;;;49.03;22.33;;;7.20;99.90;;;;;;8286898;28;20101;-67
2021/04/15 08:27:37;;;;;;;46.08;18.90;;;6.70;99.90;;;;;;8294480;28;20033;-67
2021/04/15 08:32:19;;;;;;;44.00;18.55;;;7.10;99.90;;;;;;8323168;28;20028;-67
2021/04/15 08:36:45;;;;;;;41.88;18.05;;;7.60;99.90;;;;;;8324579;28;20075;-68
2021/04/15 08:41:15;;;;;;;37.65;17.50;;;8.30;99.90;;;;;;8294772;28;20416;-68
2021/04/15 08:45:33;;;;;;;35.38;17.17;;;9.20;99.90;;;;;;8293746;28;20033;-67
2021/04/15 08:49:55;;;;;;;35.60;17.05;;;9.20;99.00;;;;;;8294164;28;20062;-68
2021/04/15 08:54:15;;;;;;;35.30;16.95;;;9.40;99.90;;;;;;8293935;28;20053;-68
2021/04/15 08:58:34;;;;;;;36.88;17.70;;;9.20;95.70;;;;;;8294502;28;20032;-67
2021/04/15 09:03:12;;;;;;;37.22;17.60;;;8.60;95.10;;;;;;8293619;28;20034;-67
2021/04/15 09:07:27;;;;;;;38.47;17.80;;;8.10;96.50;;;;;;8276059;28;20042;-67
2021/04/15 09:11:39;;;;;;;39.67;17.73;;;8.00;96.20;;;;;;8292863;28;20550;-66
2021/04/15 09:16:06;;;;;;;40.25;18.15;;;8.20;98.60;;;;;;8293590;28;20018;-66
2021/04/15 09:20:36;;;;;;;37.10;17.70;;;8.70;97.20;;;;;;8292774;28;20103;-66
2021/04/15 09:25:00;;;;;;;36.50;17.42;;;8.80;94.50;;;;;;8298225;28;20030;-67
2021/04/15 09:29:26;;;;;;;37.95;17.90;;;9.00;92.20;;;;;;8298813;28;20068;-66
2021/04/15 09:33:51;;;;;;;35.97;17.25;;;9.50;93.90;;;;;;8297996;28;20575;-66
2021/04/15 09:38:10;;;;;;;;;;;10.40;88.10;;;;;;8319229;28;20033;-66
2021/04/15 09:42:39;;;;;;;42.00;16.75;;;9.70;82.30;;;;;;8324023;28;20441;-65
2021/04/15 09:47:18;;;;;;;47.25;20.08;;;7.60;88.80;;;;;;8298307;28;20116;-66
2021/04/15 09:51:56;;;;;;;49.53;19.45;;;6.60;90.70;;;;;;8299442;28;20388;-65
2021/04/15 09:56:12;;;;;;;50.30;19.33;;;6.50;94.00;;;;;;8326480;28;20057;-67
2021/04/15 10:00:20;;;;;;;50.45;19.35;;;6.50;92.90;;;;;;8332195;28;20164;-66
2021/04/15 10:04:26;;;;;;;51.38;19.63;;;6.60;92.00;;;;;;8324004;28;20026;-69
2021/04/15 10:08:48;;;;;;;52.03;19.88;;;6.60;91.40;;;;;;8319765;28;20505;-69
2021/04/15 10:12:49;;;;;;;51.08;19.00;;;6.60;94.30;;;;;;8297698;28;20034;-69
2021/04/15 10:17:10;;;;;;;51.90;20.30;;;6.50;93.80;;;;;;8297024;28;20040;-68
2021/04/15 10:21:42;;;;;;;48.60;18.73;;;6.60;95.70;;;;;;8306889;28;20058;-65
2021/04/15 10:25:52;;;;;;;45.25;18.40;;;7.10;94.80;;;;;;8300475;28;20068;-64
2021/04/15 10:30:30;;;;;;;42.03;18.05;;;7.90;93.80;;;;;;8298480;28;20063;-65
2021/04/15 10:34:43;;;;;;;40.10;17.80;;;8.10;90.20;;;;;;8297581;28;20042;-65
2021/04/15 10:39:19;;;;;;;37.05;17.17;;;8.70;86.40;;;;;;8298542;28;20032;-66
2021/04/15 10:43:41;;;;;;;34.38;19.33;;;9.70;88.40;;;;;;8277061;28;20029;-65
2021/04/15 10:48:09;;;;;;;33.97;16.98;;;9.70;78.30;;;;;;8295558;28;20514;-65
2021/04/15 10:52:37;;;;;;;33.92;17.38;;;9.90;77.30;;;;;;8297958;28;20423;-65
2021/04/15 10:56:43;;;;;;;33.92;17.23;;;9.90;71.70;;;;;;8302621;28;20084;-64
2021/04/15 11:00:44;;;;;;;34.22;16.98;;;10.20;78.50;;;;;;8330638;28;20522;-64
2021/04/15 11:04:45;;;;;;;35.10;17.45;;;9.90;80.00;;;;;;8295577;28;20026;-65
2021/04/15 11:08:46;;;;;;;39.25;18.90;;;9.40;78.60;;;;;;8294829;28;20492;-65
2021/04/15 11:12:47;;;;;;;39.10;17.52;;;8.20;83.00;;;;;;8306960;28;20046;-64
2021/04/15 11:16:49;;;;;;;38.42;17.27;;;8.70;81.60;;;;;;8289065;28;20026;-63
2021/04/15 11:20:52;;;;;;;37.63;17.55;;;10.30;71.90;;;;;;8287451;28;20398;-65
2021/04/15 11:25:19;;;;;;;63.22;22.00;;;13.50;62.60;;;;;;8296381;28;20508;-65
2021/04/15 11:29:40;;;;;;;48.42;20.55;;;19.40;52.70;;;;;;8293901;28;20025;-65
2021/04/15 11:33:48;;;;;;;39.53;18.00;;;21.60;41.70;;;;;;8293226;28;20037;-65
2021/04/15 11:38:04;;;;;;;43.78;18.85;;;19.50;37.50;;;;;;8296014;28;20026;-65
2021/04/15 11:42:12;;;;;;;34.05;17.25;;;17.40;41.00;;;;;;8295539;28;20042;-64
2021/04/15 11:46:28;;;;;;;37.60;17.52;;;16.40;40.80;;;;;;8293068;28;20022;-65
2021/04/15 11:50:28;;;;;;;38.20;17.88;;;15.00;48.00;;;;;;8293760;28;20057;-65
2021/04/15 11:54:29;;;;;;;35.25;17.13;;;17.80;44.00;;;;;;8295405;28;20151;-66
2021/04/15 11:58:32;;;;;;;38.70;17.85;;;18.50;44.80;;;;;;8292572;28;20029;-66
2021/04/15 12:02:44;;;;;;;30.08;16.17;;;16.40;47.00;;;;;;8290261;28;20038;-65
2021/04/15 12:06:51;;;;;;;32.22;16.48;;;13.30;51.70;;;;;;8290201;28;20143;-65
2021/04/15 12:11:07;;;;;;;30.30;16.60;;;12.00;56.90;;;;;;8291668;28;20160;-64
2021/04/15 12:15:14;;;;;;;31.42;16.55;;;11.30;58.20;;;;;;8287565;28;20037;-65
2021/04/15 12:19:26;;;;;;;31.70;16.35;;;10.80;59.70;;;;;;8288818;28;20066;-66
2021/04/15 12:23:49;;;;;;;30.10;16.30;;;13.50;57.20;;;;;;8292959;28;20030;-64
2021/04/15 12:28:11;;;;;;;30.42;16.63;;;12.90;53.30;;;;;;8293605;28;20034;-65
2021/04/15 12:33:01;;;;;;;30.40;17.65;;;12.30;57.20;;;;;;8260269;28;20084;-64
2021/04/15 12:37:26;;;;;;;30.27;16.65;;;11.80;58.70;;;;;;8295286;28;20029;-65
2021/04/15 12:41:28;;;;;;;30.95;17.00;;;11.40;60.80;;;;;;8324198;28;20034;-65
2021/04/15 12:45:58;;;;;;;32.78;16.75;;;11.90;59.80;;;;;;8304260;28;20408;-67
2021/04/15 12:49:59;;;;;;;32.53;16.90;;;15.40;52.30;;;;;;8289420;28;20505;-66
2021/04/15 12:54:05;;;;;;;34.42;16.95;;;17.10;46.20;;;;;;8316018;28;20030;-67
2021/04/15 12:58:08;;;;;;;32.38;16.85;;;16.80;48.90;;;;;;8323935;28;20041;-66
2021/04/15 13:02:20;;;;;;;36.22;17.83;;;17.30;46.70;;;;;;8306506;28;20038;-67
2021/04/15 13:06:21;;;;;;;62.58;21.55;;;18.80;46.90;;;;;;8294874;28;20762;-67
2021/04/15 13:10:29;;;;;;;67.68;23.02;;;24.80;37.40;;;;;;8317385;28;20111;-65
2021/04/15 13:14:55;;;;;;;75.93;23.50;;;27.40;30.80;;;;;;8306428;28;20029;-66
2021/04/15 13:18:56;;;;;;;57.97;21.83;;;30.00;27.70;;;;;;8288733;28;20042;-66
2021/04/15 13:23:09;;;;;;;4.28;3.60;;;26.30;28.30;;;;;;8291651;28;20034;-67
2021/04/15 13:31:46;;;;;;;4.97;3.65;;;19.00;39.60;;;;;;8290020;28;20117;-67
2021/04/15 13:35:52;;;;;;;5.20;3.95;;;17.60;38.40;;;;;;8291376;28;20025;-68
2021/04/15 13:40:17;;;;;;;4.38;3.63;;;15.90;42.80;;;;;;8293931;28;20068;-67
2021/04/15 13:44:56;;;;;;;4.72;3.45;;;13.90;43.60;;;;;;8286163;28;20443;-67
2021/04/15 13:49:09;;;;;;;4.03;3.28;;;12.00;51.80;;;;;;8289000;28;20014;-67
2021/04/15 13:53:47;;;;;;;4.20;3.08;;;12.20;48.60;;;;;;8295179;28;20026;-67
2021/04/15 13:57:48;;;;;;;4.03;3.47;;;13.00;47.70;;;;;;8286830;28;20387;-66
2021/04/15 14:01:48;;;;;;;3.58;3.10;;;12.00;47.70;;;;;;8284527;28;20030;-67
2021/04/15 14:06:07;;;;;;;4.88;3.58;;;11.10;51.70;;;;;;8280870;28;20509;-67
2021/04/15 14:10:11;;;;;;;5.80;3.80;;;10.60;57.90;;;;;;8289017;28;20018;-67
2021/04/15 14:14:29;;;;;;;6.65;4.00;;;10.20;62.50;;;;;;8292487;28;20022;-67
2021/04/15 14:18:36;;;;;;;4.90;3.45;;;9.80;65.70;;;;;;8291925;28;20531;-67
2021/04/15 14:22:39;;;;;;;6.90;3.80;;;9.80;65.70;;;;;;8290062;28;20026;-67
2021/04/15 14:26:42;;;;;;;6.03;3.60;;;9.80;66.10;;;;;;8291353;28;20026;-67
2021/04/15 14:30:43;;;;;;;5.32;3.50;;;9.80;64.70;;;;;;8293659;28;20018;-67
2021/04/15 14:34:47;;;;;;;7.93;3.67;;;9.90;64.30;;;;;;8288721;28;20030;-67
2021/04/15 14:38:48;;;;;;;7.65;3.95;;;10.00;63.70;;;;;;8286364;28;20026;-67
2021/04/15 14:42:48;;;;;;;6.32;3.40;;;9.50;63.60;;;;;;8290406;28;20665;-67
2021/04/15 14:46:49;;;;;;;4.45;3.60;;;10.30;63.20;;;;;;8297771;28;20037;-68
2021/04/15 14:51:01;;;;;;;6.25;3.30;;;16.20;53.30;;;;;;8279805;28;20022;-67
2021/04/15 14:55:02;;;;;;;6.85;4.25;;;21.80;42.40;;;;;;8284686;28;20548;-64
2021/04/15 14:59:29;;;;;;;3.83;3.42;;;24.90;35.00;;;;;;8289117;28;20057;-66
2021/04/15 15:03:41;;;;;;;3.13;2.83;;;26.00;32.10;;;;;;8287992;28;20053;-66
2021/04/15 15:07:42;;;;;;;3.92;3.20;;;25.90;30.70;;;;;;8289707;28;20954;-66
2021/04/15 15:11:44;;;;;;;4.15;2.67;;;24.80;29.20;;;;;;8287831;28;20029;-66
2021/04/15 15:15:47;;;;;;;3.90;2.80;;;24.50;29.70;;;;;;8288260;28;20058;-66
2021/04/15 15:19:48;;;;;;;4.53;3.28;;;24.30;31.00;;;;;;8290835;28;20021;-66
2021/04/15 15:24:08;;;;;;;2.90;2.67;;;21.30;30.80;;;;;;8290167;28;20140;-66
2021/04/15 15:28:15;;;;;;;3.30;2.80;;;20.70;33.20;;;;;;8295502;28;20029;-67
2021/04/15 15:32:23;;;;;;;5.88;3.60;;;22.40;30.70;;;;;;8286418;28;20054;-67
2021/04/15 15:36:28;;;;;;;6.05;2.95;;;21.70;32.90;;;;;;8301772;28;20033;-66
2021/04/15 15:40:48;;;;;;;3.72;3.15;;;22.70;30.70;;;;;;8309114;28;20522;-67
2021/04/15 15:44:48;;;;;;;3.88;3.33;;;23.10;31.80;;;;;;8287447;28;20017;-65
2021/04/15 15:48:53;;;;;;;3.72;3.38;;;22.30;33.40;;;;;;8290677;28;20028;-64
2021/04/15 15:53:14;;;;;;;4.03;3.60;;;20.70;35.70;;;;;;8293427;28;20048;-66
2021/04/15 15:57:21;;;;;;;3.63;3.30;;;21.20;35.60;;;;;;8288740;28;20042;-65
2021/04/15 16:01:21;;;;;;;4.10;3.30;;;20.50;35.60;;;;;;8293496;28;20065;-65
2021/04/15 16:05:28;;;;;;;3.78;3.30;;;21.10;35.50;;;;;;8291507;28;20103;-65
2021/04/15 16:09:28;;;;;;;3.70;3.05;;;22.30;33.40;;;;;;8287783;28;20041;-66
2021/04/15 16:13:29;;;;;;;4.10;3.50;;;21.30;33.50;;;;;;8292169;28;20157;-64
2021/04/15 16:17:29;;;;;;;4.32;3.38;;;17.80;38.40;;;;;;8309074;28;20029;-64
2021/04/15 16:21:32;;;;;;;4.90;3.17;;;17.10;42.40;;;;;;8292265;28;20049;-65
2021/04/15 16:25:33;;;;;;;4.35;3.22;;;19.30;39.70;;;;;;8292113;28;20030;-65
2021/04/15 16:29:35;;;;;;;4.40;3.20;;;20.50;35.40;;;;;;8293703;28;20030;-65
2021/04/15 16:33:36;;;;;;;4.00;3.60;;;21.90;34.40;;;;;;8292100;28;20108;-65
2021/04/15 16:37:39;;;;;;;5.38;3.38;;;22.40;32.30;;;;;;8293370;28;20033;-65
2021/04/15 16:41:39;;;;;;;3.92;3.38;;;22.70;31.50;;;;;;8291065;28;20026;-65
2021/04/15 16:45:40;;;;;;;4.25;3.60;;;22.50;31.50;;;;;;8291662;28;20060;-65
2021/04/15 16:49:41;;;;;;;4.22;3.70;;;21.90;32.40;;;;;;8292518;28;20026;-65
2021/04/15 16:53:42;;;;;;;6.35;3.58;;;21.70;33.70;;;;;;8291571;28;20044;-65
2021/04/15 16:57:43;;;;;;;5.00;4.45;;;21.90;33.20;;;;;;8293104;28;20033;-65
2021/04/15 17:01:44;;;;;;;4.97;4.47;;;21.20;33.90;;;;;;8291514;28;20034;-65
2021/04/15 17:05:45;;;;;;;5.78;5.28;;;18.70;38.10;;;;;;8292775;28;20030;-65
2021/04/15 17:09:47;;;;;;;5.25;3.97;;;16.30;42.30;;;;;;8293299;28;20095;-65
2021/04/15 17:13:48;;;;;;;4.93;3.55;;;14.40;47.10;;;;;;8291100;28;20026;-65
2021/04/15 17:17:48;;;;;;;4.50;3.50;;;12.70;49.10;;;;;;8292264;28;20032;-65
2021/04/15 17:21:49;;;;;;;4.65;3.70;;;11.50;53.20;;;;;;8299973;28;20028;-66
2021/04/15 17:25:52;;;;;;;6.22;3.75;;;10.60;55.30;;;;;;8293504;28;20018;-65
2021/04/15 17:29:53;;;;;;;4.80;3.17;;;9.90;57.60;;;;;;8289393;28;20035;-65
2021/04/15 17:33:54;;;;;;;8.75;3.20;;;8.40;58.80;;;;;;8273945;28;20034;-64
2021/04/15 17:37:55;;;;;;;5.50;3.15;;;8.00;63.10;;;;;;8282250;28;20160;-66
2021/04/15 17:41:57;;;;;;;6.45;2.97;;;7.70;65.50;;;;;;8287171;28;20455;-66
2021/04/15 17:45:58;;;;;;;5.57;2.90;;;7.60;69.10;;;;;;8289138;28;20029;-66
2021/04/15 17:49:58;;;;;;;4.82;3.00;;;7.30;69.80;;;;;;8292096;28;20545;-67
2021/04/15 17:53:59;;;;;;;6.80;3.42;;;6.80;71.50;;;;;;8282863;28;20025;-66
2021/04/15 17:58:00;;;;;;;5.38;3.40;;;6.50;75.10;;;;;;8290459;28;20057;-67
2021/04/15 18:02:02;;;;;;;4.15;3.05;;;6.30;76.40;;;;;;8289228;28;20037;-67
2021/04/15 18:06:04;;;;;;;7.82;4.00;;;6.20;78.80;;;;;;8290604;28;20041;-66
2021/04/15 18:10:08;;;;;;;5.35;3.58;;;6.00;80.20;;;;;;8301084;28;20058;-66
2021/04/15 18:14:10;;;;;;;3.65;2.97;;;5.80;82.00;;;;;;8295406;28;20113;-67
2021/04/15 18:18:11;;;;;;;5.75;3.15;;;5.60;85.60;;;;;;8288030;28;20029;-68
2021/04/15 18:22:12;;;;;;;5.22;3.50;;;5.50;87.70;;;;;;8288596;28;20034;-68
2021/04/15 18:26:13;;;;;;;5.78;3.45;;;5.40;90.40;;;;;;8294461;28;20100;-68
2021/04/15 18:30:20;;;;;;;4.55;3.28;;;5.10;92.30;;;;;;8288956;28;20025;-67
2021/04/15 18:34:22;;;;;;;5.82;3.25;;;4.80;94.30;;;;;;8289391;28;20041;-68
2021/04/15 18:38:25;;;;;;;6.57;3.28;;;4.80;96.00;;;;;;8294519;28;20033;-67
2021/04/15 18:42:25;;;;;;;4.88;3.53;;;4.80;97.40;;;;;;8302586;28;20034;-68
2021/04/15 18:46:26;;;;;;;6.72;3.53;;;4.50;99.90;;;;;;8300398;28;20041;-68
2021/04/15 18:50:30;;;;;;;6.55;3.63;;;4.10;99.90;;;;;;8302412;28;20025;-68
2021/04/15 18:54:32;;;;;;;6.82;3.60;;;3.80;99.90;;;;;;8297256;28;20040;-68
2021/04/15 18:58:34;;;;;;;6.07;3.65;;;3.60;99.90;;;;;;8304349;28;20196;-68
2021/04/15 19:02:34;;;;;;;6.00;3.80;;;3.70;99.90;;;;;;8303484;28;20150;-68
2021/04/15 19:06:35;;;;;;;6.63;3.50;;;3.90;99.90;;;;;;8310813;28;20032;-68
2021/04/15 19:10:39;;;;;;;7.03;4.05;;;4.10;99.90;;;;;;8295820;28;20021;-67
2021/04/15 19:14:40;;;;;;;7.10;3.63;;;4.20;99.90;;;;;;8297835;28;20061;-68
2021/04/15 19:18:40;;;;;;;6.40;4.05;;;4.20;99.90;;;;;;8297672;28;20033;-66
2021/04/15 19:22:41;;;;;;;7.35;3.92;;;4.20;99.90;;;;;;8303800;28;20037;-66
2021/04/15 19:26:43;;;;;;;5.38;3.83;;;4.20;99.90;;;;;;8310458;28;20086;-66
2021/04/15 19:30:44;;;;;;;7.93;3.95;;;4.00;99.90;;;;;;8301378;28;20036;-69
2021/04/15 19:34:46;;;;;;;6.40;3.80;;;3.80;99.90;;;;;;8306413;28;21477;-68
2021/04/15 19:38:47;;;;;;;5.57;3.80;;;3.80;99.90;;;;;;8280936;28;20069;-68
2021/04/15 19:42:48;;;;;;;5.40;3.45;;;3.70;99.90;;;;;;8295756;28;20026;-68
2021/04/15 19:46:49;;;;;;;5.93;3.70;;;3.60;99.90;;;;;;8298034;28;20056;-68
2021/04/15 19:50:54;;;;;;;7.75;3.70;;;3.30;99.90;;;;;;8300816;28;20014;-69
2021/04/15 19:54:55;;;;;;;10.77;4.00;;;3.10;99.90;;;;;;8303400;28;20026;-68
2021/04/15 19:58:55;;;;;;;5.95;3.90;;;2.90;99.90;;;;;;8303458;28;20034;-68
2021/04/15 20:02:56;;;;;;;7.30;4.07;;;2.70;99.90;;;;;;8307639;28;20033;-68
2021/04/15 20:06:57;;;;;;;5.97;4.00;;;2.60;99.90;;;;;;8301625;28;20083;-68
2021/04/15 20:11:06;;;;;;;5.80;4.20;;;2.50;99.90;;;;;;8285803;28;20022;-68
2021/04/15 20:15:08;;;;;;;7.05;3.92;;;2.50;99.90;;;;;;8307631;28;20650;-67
2021/04/15 20:19:11;;;;;;;5.63;4.03;;;2.50;99.90;;;;;;8303531;28;20128;-68
2021/04/15 20:23:11;;;;;;;8.30;4.00;;;2.40;99.90;;;;;;8302485;28;20060;-68
2021/04/15 20:27:12;;;;;;;6.65;4.32;;;2.30;99.90;;;;;;8298936;28;20025;-67
2021/04/15 20:31:13;;;;;;;8.30;3.78;;;2.40;99.90;;;;;;8304199;28;20032;-67
2021/04/15 20:35:15;;;;;;;9.30;3.80;;;2.10;99.90;;;;;;8300376;28;20042;-68
2021/04/15 20:39:16;;;;;;;6.22;4.03;;;1.90;99.90;;;;;;8301578;28;20060;-68
2021/04/15 20:43:17;;;;;;;5.90;4.07;;;1.80;99.90;;;;;;8304945;28;20069;-68
2021/04/15 20:47:19;;;;;;;5.80;3.97;;;1.60;99.90;;;;;;8294462;28;20030;-68
2021/04/15 20:51:20;;;;;;;8.10;4.22;;;1.60;99.90;;;;;;8288719;28;20025;-68
2021/04/15 20:55:21;;;;;;;7.28;4.10;;;1.50;99.90;;;;;;8293745;28;20111;-68
2021/04/15 20:59:22;;;;;;;6.90;4.07;;;1.40;99.90;;;;;;8271772;28;20786;-68
2021/04/15 21:03:24;;;;;;;6.90;4.53;;;1.40;99.90;;;;;;8284330;28;20042;-68
2021/04/15 21:07:25;;;;;;;6.20;4.00;;;1.40;99.90;;;;;;8293410;28;20036;-67
2021/04/15 21:11:26;;;;;;;8.18;4.40;;;1.20;99.90;;;;;;8293302;28;20033;-68
2021/04/15 21:15:26;;;;;;;6.13;4.10;;;1.30;99.90;;;;;;8291620;28;20022;-67
2021/04/15 21:19:27;;;;;;;8.35;4.35;;;1.30;99.90;;;;;;8302015;28;20062;-67
2021/04/15 21:23:28;;;;;;;11.10;4.28;;;1.20;99.90;;;;;;8303728;28;20034;-68
2021/04/15 21:27:29;;;;;;;8.38;4.43;;;1.10;99.90;;;;;;8303722;28;20458;-67
2021/04/15 21:31:29;;;;;;;5.10;3.78;;;1.10;99.90;;;;;;8303216;28;20026;-68
2021/04/15 21:35:30;;;;;;;7.05;4.32;;;1.10;99.90;;;;;;8302985;28;20053;-69
2021/04/15 21:39:31;;;;;;;5.25;4.07;;;1.10;99.90;;;;;;8302223;28;20053;-67
2021/04/15 21:43:31;;;;;;;7.68;4.50;;;1.30;99.90;;;;;;8303595;28;20034;-67
2021/04/15 21:47:32;;;;;;;8.57;4.82;;;1.10;99.90;;;;;;8303223;28;20403;-67
2021/04/15 21:51:33;;;;;;;5.93;4.05;;;0.90;99.90;;;;;;8302115;28;20016;-67
2021/04/15 21:55:34;;;;;;;6.10;4.15;;;0.90;99.90;;;;;;8302615;28;20036;-67
2021/04/15 21:59:34;;;;;;;6.75;3.75;;;0.80;99.90;;;;;;8302750;28;20034;-67
2021/04/15 22:03:35;;;;;;;6.57;4.63;;;0.70;99.90;;;;;;8301120;28;20033;-67
2021/04/15 22:07:36;;;;;;;7.38;4.85;;;0.50;99.90;;;;;;8302803;28;20058;-67
2021/04/15 22:11:39;;;;;;;7.93;5.18;;;0.30;99.90;;;;;;8303351;28;20472;-68
2021/04/15 22:15:40;;;;;;;8.68;4.75;;;0.00;99.90;;;;;;8332971;28;20060;-68